Time;durP1;ratioP1;P1;durP2;ratioP2;P2;SDS_P1;SDS_P2;PMS_P1;PMS_P2;Temp;Humidity;BMP_temperature;BMP_pressure;BME280_temperature;BME280_humidity;BME280_pressure;Samples;Min_cycle;Max_cycle;Signal;HPM_P1;HPM_P2
2022/01/14 00:01:06;;;;;;;21.75;8.63;;;;;;;2.77;100.00;103367.13;5066736;28;20139;-69
2022/01/14 00:03:33;;;;;;;38.92;11.63;;;;;;;2.73;100.00;103369.59;5061664;28;20400;-71
2022/01/14 00:06:00;;;;;;;48.97;18.85;;;;;;;2.73;100.00;103364.13;5064814;28;20056;-71
2022/01/14 00:08:27;;;;;;;37.97;14.88;;;;;;;2.78;100.00;103366.81;5066444;28;20056;-71
2022/01/14 00:10:56;;;;;;;51.45;20.88;;;;;;;2.73;100.00;103368.75;5069587;28;20091;-70
2022/01/14 00:16:05;;;;;;;33.70;11.77;;;;;;;2.70;100.00;103358.38;5064877;28;20056;-70
2022/01/14 00:18:32;;;;;;;22.83;9.75;;;;;;;2.76;100.00;103357.25;5078682;28;20083;-70
2022/01/14 00:21:00;;;;;;;16.98;7.38;;;;;;;2.72;100.00;103350.72;5073982;28;20044;-71
2022/01/14 00:23:36;;;;;;;25.23;10.27;;;;;;;2.77;100.00;103342.53;5068276;28;20428;-70
2022/01/14 00:34:16;;;;;;;20.38;9.32;;;;;;;2.64;100.00;103340.41;5068396;28;20044;-72
2022/01/14 00:36:45;;;;;;;26.92;10.05;;;;;;;2.65;100.00;103339.28;5086620;28;20053;-70
2022/01/14 00:39:13;;;;;;;41.78;15.55;;;;;;;2.56;100.00;103336.31;5066550;28;20072;-71
2022/01/14 00:41:41;;;;;;;40.13;14.85;;;;;;;2.61;100.00;103333.53;5067010;28;20055;-71
2022/01/14 00:44:15;;;;;;;26.08;10.60;;;;;;;2.63;100.00;103334.09;5069411;28;20420;-71
2022/01/14 00:46:44;;;;;;;24.53;12.17;;;;;;;2.62;100.00;103340.66;5067215;28;20135;-71
2022/01/14 00:49:12;;;;;;;33.97;12.40;;;;;;;2.55;100.00;103331.97;5069453;28;20110;-71
2022/01/14 00:51:39;;;;;;;43.25;17.42;;;;;;;2.53;100.00;103327.84;5058310;28;20071;-70
2022/01/14 00:54:07;;;;;;;19.70;8.70;;;;;;;2.55;100.00;103325.66;5082003;28;20048;-71
2022/01/14 00:56:46;;;;;;;38.50;15.50;;;;;;;2.45;100.00;103325.72;5069217;28;20144;-70
2022/01/14 00:59:16;;;;;;;31.80;10.30;;;;;;;2.50;100.00;103331.97;5067764;28;20048;-71
2022/01/14 01:01:50;;;;;;;42.33;21.13;;;;;;;2.30;100.00;103339.44;5069170;28;20143;-72
2022/01/14 01:04:26;;;;;;;35.67;14.43;;;;;;;2.42;100.00;103337.19;5070080;28;20048;-71
2022/01/14 01:06:53;;;;;;;42.00;17.42;;;;;;;2.36;100.00;103332.84;5067733;28;20774;-71
2022/01/14 01:09:23;;;;;;;39.20;15.52;;;;;;;2.41;100.00;103333.66;5059841;28;20044;-69
2022/01/14 01:12:08;;;;;;;25.17;9.35;;;;;;;2.45;100.00;103345.66;5071017;28;20139;-71
2022/01/14 01:14:47;;;;;;;53.97;20.83;;;;;;;2.38;100.00;103333.41;5072396;28;20494;-72
2022/01/14 01:17:14;;;;;;;64.97;24.40;;;;;;;2.52;100.00;103346.19;5067265;28;20052;-71
2022/01/14 01:19:41;;;;;;;61.15;24.15;;;;;;;2.53;100.00;103346.97;5068415;28;20535;-71
2022/01/14 01:22:08;;;;;;;65.38;23.95;;;;;;;2.58;100.00;103334.13;5068672;28;20059;-69
2022/01/14 01:24:35;;;;;;;63.45;24.05;;;;;;;2.60;100.00;103345.59;5066981;28;20099;-72
2022/01/14 01:27:06;;;;;;;41.88;17.88;;;;;;;2.59;100.00;103343.13;5069051;28;20127;-71
2022/01/14 01:32:08;;;;;;;74.28;26.92;;;;;;;2.58;100.00;103345.06;5074769;28;20500;-70
2022/01/14 01:34:36;;;;;;;31.60;12.32;;;;;;;2.59;100.00;103349.44;5066947;28;20059;-70
2022/01/14 01:37:04;;;;;;;55.97;19.63;;;;;;;2.64;100.00;103343.13;5069115;28;20049;-70
2022/01/14 01:39:34;;;;;;;57.08;23.60;;;;;;;2.57;100.00;103343.41;5078396;28;20067;-71
2022/01/14 01:42:08;;;;;;;66.32;23.95;;;;;;;2.67;100.00;103356.25;5066828;28;20536;-71
2022/01/14 01:44:38;;;;;;;22.75;9.25;;;;;;;2.56;100.00;103368.28;5065737;28;20099;-72
2022/01/14 01:47:05;;;;;;;45.83;16.73;;;;;;;2.57;100.00;103365.28;5063180;28;20140;-70
2022/01/14 01:49:35;;;;;;;38.83;14.30;;;;;;;2.55;100.00;103362.03;5068338;28;20135;-71
2022/01/14 01:52:03;;;;;;;27.20;10.77;;;;;;;2.50;100.00;103361.22;5058952;28;20152;-72
2022/01/14 01:54:30;;;;;;;29.92;11.48;;;;;;;2.38;100.00;103352.53;5068052;28;20135;-72
2022/01/14 01:56:57;;;;;;;58.15;22.23;;;;;;;2.45;100.00;103362.06;5078500;28;20080;-71
2022/01/14 01:59:25;;;;;;;14.55;7.32;;;;;;;2.42;100.00;103357.16;5074552;28;20045;-70
2022/01/14 02:01:55;;;;;;;57.03;20.92;;;;;;;2.49;100.00;103357.69;5067478;28;20123;-70
2022/01/14 02:04:22;;;;;;;50.53;19.50;;;;;;;2.38;100.00;103352.53;5068071;28;20072;-71
2022/01/14 02:06:51;;;;;;;39.42;13.02;;;;;;;2.45;100.00;103356.59;5066251;28;20149;-71
2022/01/14 02:09:18;;;;;;;68.38;21.85;;;;;;;2.45;100.00;103351.13;5065461;28;20127;-70
2022/01/14 02:11:44;;;;;;;18.95;7.95;;;;;;;2.44;100.00;103352.22;5060480;28;20143;-70
2022/01/14 02:14:51;;;;;;;22.83;9.18;;;;;;;2.40;100.00;103353.06;5060255;28;20052;-70
2022/01/14 02:23:04;;;;;;;31.13;10.40;;;;;;;2.36;100.00;103343.78;5051803;28;20151;-69
2022/01/14 02:25:31;;;;;;;31.77;13.85;;;;;;;2.30;100.00;103337.50;5070943;28;20052;-71
2022/01/14 02:28:05;;;;;;;27.13;11.57;;;;;;;2.30;100.00;103331.25;5077732;28;20557;-71
2022/01/14 02:30:34;;;;;;;41.45;15.98;;;;;;;2.27;100.00;103326.34;5067255;28;20049;-71
2022/01/14 02:33:01;;;;;;;36.17;12.90;;;;;;;2.24;100.00;103319.53;5067683;28;20123;-70
2022/01/14 02:35:29;;;;;;;74.22;24.88;;;;;;;2.27;100.00;103312.69;5065406;28;20482;-71
2022/01/14 02:37:55;;;;;;;61.45;21.20;;;;;;;2.38;100.00;103328.75;5073641;28;20070;-71
2022/01/14 02:40:23;;;;;;;48.50;18.63;;;;;;;2.37;100.00;103326.31;5066594;28;20066;-71
2022/01/14 02:42:50;;;;;;;31.98;12.63;;;;;;;2.34;100.00;103322.22;5070333;28;20490;-70
2022/01/14 02:45:17;;;;;;;34.97;13.65;;;;;;;2.30;100.00;103326.59;5064377;28;20505;-71
2022/01/14 02:47:45;;;;;;;49.00;20.38;;;;;;;2.38;100.00;103322.47;5060767;28;20052;-70
2022/01/14 02:50:17;;;;;;;85.97;26.35;;;;;;;2.41;100.00;103317.28;5069135;28;20147;-70
2022/01/14 02:55:30;;;;;;;8.85;3.65;;;;;;;2.39;100.00;103316.72;5067610;28;20052;-70
2022/01/14 02:57:59;;;;;;;16.17;9.15;;;;;;;2.37;100.00;103305.25;5067040;28;20098;-70
2022/01/14 03:00:30;;;;;;;51.83;19.10;;;;;;;2.42;100.00;103301.66;5065530;28;20037;-71
2022/01/14 03:03:00;;;;;;;54.03;18.00;;;;;;;2.42;100.00;103299.78;5068137;28;20065;-70
2022/01/14 03:05:29;;;;;;;31.65;11.23;;;;;;;2.44;100.00;103304.94;5066939;28;20052;-70
2022/01/14 03:07:57;;;;;;;75.05;22.45;;;;;;;2.45;100.00;103301.13;5083060;28;20060;-70
2022/01/14 03:10:24;;;;;;;71.82;24.88;;;;;;;2.49;100.00;103302.19;5067673;28;20053;-69
2022/01/14 03:12:50;;;;;;;62.53;22.60;;;;;;;2.46;100.00;103292.63;5066890;28;20079;-70
2022/01/14 03:15:19;;;;;;;43.33;15.55;;;;;;;2.43;100.00;103286.94;5067164;28;20547;-70
2022/01/14 03:17:46;;;;;;;22.05;10.05;;;;;;;2.47;100.00;103280.59;5065614;28;20122;-70
2022/01/14 03:20:34;;;;;;;8.52;4.50;;;;;;;2.45;100.00;103276.53;5067046;28;20116;-70
2022/01/14 03:23:05;;;;;;;71.10;25.52;;;;;;;2.54;100.00;103272.09;5065300;28;20058;-70
2022/01/14 03:25:51;;;;;;;77.13;27.42;;;;;;;2.60;100.00;103279.19;5067341;28;20402;-71
2022/01/14 03:28:20;;;;;;;62.75;22.40;;;;;;;2.57;100.00;103268.81;5056847;28;20140;-71
2022/01/14 03:30:49;;;;;;;68.60;23.60;;;;;;;2.57;100.00;103266.09;5067645;28;20052;-69
2022/01/14 03:33:16;;;;;;;84.93;26.48;;;;;;;2.62;100.00;103274.25;5066971;28;20044;-71
2022/01/14 03:35:43;;;;;;;75.82;25.45;;;;;;;2.65;100.00;103276.41;5073459;28;20056;-71
2022/01/14 03:38:10;;;;;;;79.25;24.15;;;;;;;2.61;100.00;103262.47;5059492;28;20141;-72
2022/01/14 03:40:36;;;;;;;57.97;21.92;;;;;;;2.63;100.00;103263.03;5067144;28;20517;-71
2022/01/14 03:43:03;;;;;;;80.78;26.95;;;;;;;2.62;100.00;103253.19;5086912;28;20148;-71
2022/01/14 03:45:30;;;;;;;79.82;26.58;;;;;;;2.72;100.00;103258.59;5071551;28;20056;-70
2022/01/14 03:47:56;;;;;;;71.82;21.80;;;;;;;2.68;100.00;103252.06;5067854;28;20175;-73
2022/01/14 03:50:24;;;;;;;71.90;24.75;;;;;;;2.68;100.00;103251.25;5069782;28;20048;-71
2022/01/14 03:52:51;;;;;;;74.38;23.67;;;;;;;2.69;100.00;103258.34;5071184;28;20052;-72
2022/01/14 03:55:17;;;;;;;68.72;24.88;;;;;;;2.70;100.00;103265.44;5070643;28;20071;-71
2022/01/14 03:57:45;;;;;;;75.47;24.08;;;;;;;2.73;100.00;103270.34;5071178;28;20102;-71
2022/01/14 04:00:12;;;;;;;65.65;22.55;;;;;;;2.67;100.00;103266.03;5070360;28;20079;-70
2022/01/14 04:02:39;;;;;;;86.38;25.40;;;;;;;2.64;100.00;103267.38;5068130;28;20449;-71
2022/01/14 04:05:06;;;;;;;67.25;22.50;;;;;;;2.67;100.00;103271.50;5071297;28;20049;-70
2022/01/14 04:07:33;;;;;;;83.15;25.35;;;;;;;2.64;100.00;103272.03;5060417;28;20132;-73
2022/01/14 04:10:00;;;;;;;87.43;28.13;;;;;;;2.64;100.00;103278.31;5071118;28;20087;-71
2022/01/14 04:12:49;;;;;;;55.90;18.88;;;;;;;2.60;100.00;103271.78;5069705;28;20127;-71
2022/01/14 04:18:14;;;;;;;33.00;12.98;;;;;;;2.41;100.00;103261.78;5070209;28;20113;-71
2022/01/14 04:20:43;;;;;;;16.20;8.32;;;;;;;2.43;100.00;103260.41;5059172;28;20149;-71
2022/01/14 04:23:13;;;;;;;36.95;15.45;;;;;;;2.45;100.00;103258.22;5068705;28;20088;-71
2022/01/14 04:25:40;;;;;;;24.25;11.57;;;;;;;2.41;100.00;103264.53;5070710;28;20048;-70
2022/01/14 04:28:08;;;;;;;36.50;13.00;;;;;;;2.40;100.00;103254.69;5070489;28;20080;-71
2022/01/14 04:30:35;;;;;;;43.20;17.73;;;;;;;2.46;100.00;103259.00;5059175;28;20949;-71
2022/01/14 04:33:03;;;;;;;47.53;17.65;;;;;;;2.45;100.00;103268.31;5070406;28;20067;-72
2022/01/14 04:35:31;;;;;;;12.27;6.53;;;;;;;2.40;100.00;103252.75;5080187;28;20079;-70
2022/01/14 04:37:58;;;;;;;62.20;22.02;;;;;;;2.43;100.00;103248.66;5073639;28;20768;-70
2022/01/14 04:40:25;;;;;;;24.00;9.93;;;;;;;2.35;100.00;103257.44;5063520;28;20051;-72
2022/01/14 04:42:53;;;;;;;9.18;4.32;;;;;;;2.39;100.00;103250.31;5068121;28;20054;-71
2022/01/14 04:47:56;;;;;;;24.38;10.20;;;;;;;2.35;100.00;103249.25;5070028;28;20076;-72
2022/01/14 04:50:24;;;;;;;29.92;8.20;;;;;;;2.33;100.00;103244.06;5070060;28;20412;-71
2022/01/14 04:52:51;;;;;;;16.45;6.18;;;;;;;2.32;100.00;103234.22;5055642;28;20131;-71
2022/01/14 04:55:19;;;;;;;18.23;8.23;;;;;;;2.33;100.00;103240.53;5066343;28;20064;-72
2022/01/14 04:57:46;;;;;;;47.63;18.27;;;;;;;2.23;100.00;103249.56;5068969;28;20203;-71
2022/01/14 05:00:16;;;;;;;22.73;10.13;;;;;;;2.27;100.00;103247.91;5069241;28;20049;-72
2022/01/14 05:02:43;;;;;;;45.90;17.52;;;;;;;2.27;100.00;103245.16;5067492;28;20590;-71
2022/01/14 05:05:11;;;;;;;36.08;14.25;;;;;;;2.26;100.00;103248.22;5069976;28;20056;-71
2022/01/14 05:07:40;;;;;;;28.98;10.35;;;;;;;2.21;100.00;103251.78;5069284;28;20159;-71
2022/01/14 05:10:22;;;;;;;42.28;16.33;;;;;;;2.23;100.00;103243.31;5069365;28;20585;-71
2022/01/14 05:12:49;;;;;;;44.03;16.67;;;;;;;2.20;100.00;103250.13;5068094;28;20131;-71
2022/01/14 05:15:17;;;;;;;11.02;5.35;;;;;;;2.24;100.00;103253.13;5069847;28;20131;-72
2022/01/14 05:17:45;;;;;;;46.65;16.52;;;;;;;2.24;100.00;103245.75;5064113;28;20123;-69
2022/01/14 05:20:13;;;;;;;14.88;7.32;;;;;;;2.21;100.00;103243.59;5069139;28;20064;-71
2022/01/14 05:22:40;;;;;;;40.97;14.40;;;;;;;2.25;100.00;103247.38;5067610;28;20098;-69
2022/01/14 05:25:08;;;;;;;21.02;7.72;;;;;;;2.16;100.00;103246.31;5068678;28;20052;-71
2022/01/14 05:27:35;;;;;;;74.70;24.02;;;;;;;2.25;100.00;103249.28;5058844;28;20063;-71
2022/01/14 05:30:07;;;;;;;66.78;18.52;;;;;;;2.25;100.00;103246.56;5067799;28;20452;-69
2022/01/14 05:32:34;;;;;;;44.33;16.35;;;;;;;2.17;100.00;103247.16;5068464;28;20163;-70
2022/01/14 05:35:01;;;;;;;52.40;20.08;;;;;;;2.13;100.00;103237.88;5069350;28;20507;-70
2022/01/14 05:37:28;;;;;;;26.70;10.63;;;;;;;2.17;100.00;103241.69;5069768;28;20056;-72
2022/01/14 05:39:56;;;;;;;12.07;5.22;;;;;;;2.16;100.00;103240.06;5069525;28;20059;-70
2022/01/14 05:42:22;;;;;;;37.22;11.77;;;;;;;2.19;100.00;103242.22;5059369;28;20110;-71
2022/01/14 05:44:51;;;;;;;58.67;17.85;;;;;;;2.24;100.00;103242.19;5068311;28;20817;-70
2022/01/14 05:47:18;;;;;;;21.50;8.57;;;;;;;2.17;100.00;103244.41;5057154;28;20041;-70
2022/01/14 05:49:45;;;;;;;51.22;18.48;;;;;;;2.26;100.00;103245.47;5068790;28;20067;-71
2022/01/14 05:52:11;;;;;;;45.25;13.77;;;;;;;2.24;100.00;103244.94;5061591;28;20064;-71
2022/01/14 05:54:38;;;;;;;27.48;12.35;;;;;;;2.19;100.00;103250.41;5069013;28;20052;-70
2022/01/14 05:57:05;;;;;;;80.30;27.35;;;;;;;2.30;100.00;103235.63;5067678;28;20054;-71
2022/01/14 05:59:31;;;;;;;30.25;12.25;;;;;;;2.24;100.00;103234.00;5067363;28;20055;-70
2022/01/14 06:01:58;;;;;;;31.33;13.07;;;;;;;2.29;100.00;103234.78;5067202;28;20079;-69
2022/01/14 06:04:25;;;;;;;10.88;5.47;;;;;;;2.25;100.00;103230.16;5065910;28;20066;-70
2022/01/14 06:06:52;;;;;;;89.95;28.88;;;;;;;2.34;100.00;103234.78;5082330;28;20131;-69
2022/01/14 06:09:18;;;;;;;58.50;18.77;;;;;;;2.33;100.00;103227.66;5067906;28;20437;-67
2022/01/14 06:11:45;;;;;;;58.30;19.02;;;;;;;2.34;100.00;103223.84;5065827;28;20131;-69
2022/01/14 06:14:11;;;;;;;89.45;26.23;;;;;;;2.34;100.00;103217.56;5068537;28;20159;-69
2022/01/14 06:16:38;;;;;;;26.58;9.50;;;;;;;2.34;100.00;103217.56;5067781;28;20054;-71
2022/01/14 06:19:04;;;;;;;28.50;12.27;;;;;;;2.31;100.00;103215.38;5066768;28;20051;-70
2022/01/14 06:21:31;;;;;;;43.55;15.95;;;;;;;2.36;100.00;103209.88;5068377;28;20049;-70
2022/01/14 06:23:57;;;;;;;31.67;12.10;;;;;;;2.31;100.00;103207.19;5066686;28;20070;-69
2022/01/14 06:26:24;;;;;;;35.50;10.82;;;;;;;2.34;100.00;103202.00;5066327;28;20048;-68
2022/01/14 06:28:51;;;;;;;78.93;23.30;;;;;;;2.39;100.00;103209.31;5067982;28;20052;-71
2022/01/14 06:31:18;;;;;;;103.07;30.75;;;;;;;2.45;100.00;103202.72;5053059;28;20063;-69
2022/01/14 06:33:45;;;;;;;26.67;10.73;;;;;;;2.45;100.00;103202.72;5068162;28;20514;-71
2022/01/14 06:36:12;;;;;;;72.63;23.08;;;;;;;2.46;100.00;103202.44;5079764;28;20056;-70
2022/01/14 06:38:39;;;;;;;26.50;10.70;;;;;;;2.37;100.00;103203.34;5061777;28;20059;-70
2022/01/14 06:41:05;;;;;;;45.60;13.52;;;;;;;2.38;100.00;103210.44;5066417;28;20044;-71
2022/01/14 06:43:32;;;;;;;46.20;15.02;;;;;;;2.37;100.00;103197.88;5060397;28;20057;-69
2022/01/14 06:45:59;;;;;;;90.75;28.65;;;;;;;2.45;100.00;103206.28;5066932;28;20060;-71
2022/01/14 06:48:26;;;;;;;42.97;17.30;;;;;;;2.36;100.00;103209.88;5068117;28;20053;-70
2022/01/14 06:50:52;;;;;;;94.90;30.27;;;;;;;2.41;100.00;103201.66;5060679;28;20467;-70
2022/01/14 06:53:19;;;;;;;49.05;14.52;;;;;;;2.37;100.00;103195.94;5066574;28;20086;-70
2022/01/14 06:55:45;;;;;;;32.47;14.45;;;;;;;2.38;100.00;103196.75;5061975;28;20052;-71
2022/01/14 06:58:12;;;;;;;40.20;12.15;;;;;;;2.37;100.00;103185.00;5066604;28;20062;-71
2022/01/14 07:00:38;;;;;;;93.60;30.30;;;;;;;2.47;100.00;103195.88;5064264;28;20052;-70
2022/01/14 07:03:05;;;;;;;109.60;32.08;;;;;;;2.49;100.00;103192.84;5061016;28;20052;-72
2022/01/14 07:05:32;;;;;;;27.05;11.50;;;;;;;2.39;100.00;103187.47;5067526;28;20048;-71
2022/01/14 07:07:59;;;;;;;69.72;25.15;;;;;;;2.42;100.00;103197.81;5067374;28;20136;-71
2022/01/14 07:10:26;;;;;;;30.50;9.82;;;;;;;2.46;100.00;103191.53;5067189;28;20128;-72
2022/01/14 07:12:53;;;;;;;68.10;24.40;;;;;;;2.28;100.00;103170.31;5067178;28;20654;-70
2022/01/14 07:15:21;;;;;;;47.17;16.33;;;;;;;2.36;100.00;103171.63;5059511;28;20815;-70
2022/01/14 07:17:47;;;;;;;21.13;12.90;;;;;;;2.42;100.00;103186.91;5066086;28;20611;-71
2022/01/14 07:20:17;;;;;;;74.10;25.10;;;;;;;2.48;100.00;103183.03;5066586;28;20040;-70
2022/01/14 07:22:49;;;;;;;21.38;10.52;;;;;;;2.43;100.00;103172.16;5065842;28;20119;-71
2022/01/14 07:25:17;;;;;;;111.63;35.80;;;;;;;2.56;100.00;103185.16;5082001;28;20052;-71
2022/01/14 07:27:44;;;;;;;59.55;20.98;;;;;;;2.49;100.00;103192.84;5063882;28;20049;-70
2022/01/14 07:30:14;;;;;;;86.80;29.88;;;;;;;2.50;100.00;103184.38;5062110;28;20571;-71
2022/01/14 07:32:42;;;;;;;88.82;29.02;;;;;;;2.54;100.00;103196.38;5067623;28;20045;-70
2022/01/14 07:35:09;;;;;;;112.82;32.50;;;;;;;2.55;100.00;103203.50;5073023;28;20500;-73
2022/01/14 07:37:36;;;;;;;54.22;19.20;;;;;;;2.52;100.00;103205.97;5066652;28;20420;-69
2022/01/14 07:40:04;;;;;;;42.88;15.25;;;;;;;2.45;100.00;103195.34;5070812;28;20144;-71
2022/01/14 07:42:30;;;;;;;110.65;30.80;;;;;;;2.54;100.00;103192.84;5062912;28;20052;-71
2022/01/14 07:44:57;;;;;;;31.05;10.10;;;;;;;2.50;100.00;103199.97;5067338;28;20053;-70
2022/01/14 07:47:23;;;;;;;85.40;26.85;;;;;;;2.51;100.00;103191.50;5054784;28;20052;-70
2022/01/14 07:49:50;;;;;;;44.78;18.15;;;;;;;2.48;100.00;103185.78;5067525;28;20053;-70
2022/01/14 07:52:17;;;;;;;20.05;9.50;;;;;;;2.43;100.00;103191.28;5068126;28;20135;-73
2022/01/14 07:54:43;;;;;;;52.40;14.50;;;;;;;2.32;100.00;103187.78;5060973;28;20135;-70
2022/01/14 07:57:10;;;;;;;48.60;15.15;;;;;;;2.46;100.00;103196.16;5064886;28;20052;-75
2022/01/14 07:59:37;;;;;;;41.47;16.05;;;;;;;2.40;100.00;103189.13;5068059;28;20036;-74
2022/01/14 08:02:05;;;;;;;46.60;19.05;;;;;;;2.40;100.00;103186.38;5069821;28;20080;-75
2022/01/14 08:04:35;;;;;;;52.33;15.68;;;;;;;2.43;100.00;103196.75;5069964;28;20052;-75
2022/01/14 08:07:08;;;;;;;50.78;19.60;;;;;;;2.46;100.00;103194.25;5066882;28;20151;-75
2022/01/14 08:09:40;;;;;;;37.05;13.68;;;;;;;2.39;100.00;103209.31;5069744;28;20060;-74
2022/01/14 08:12:08;;;;;;;22.27;8.27;;;;;;;2.42;100.00;103211.50;5083232;28;20076;-76
2022/01/14 08:14:36;;;;;;;124.30;29.75;;;;;;;2.39;100.00;103209.31;5067953;28;20493;-74
2022/01/14 08:17:03;;;;;;;66.47;22.63;;;;;;;2.39;100.00;103212.06;5069695;28;20052;-74
2022/01/14 08:19:33;;;;;;;34.42;12.25;;;;;;;2.35;100.00;103219.19;5069206;28;20235;-76
2022/01/14 08:22:02;;;;;;;115.43;31.70;;;;;;;2.48;100.00;103232.22;5063359;28;20049;-74
2022/01/14 08:24:29;;;;;;;124.70;32.42;;;;;;;2.50;100.00;103235.50;5063504;28;20063;-73
2022/01/14 08:26:56;;;;;;;63.58;21.40;;;;;;;2.50;100.00;103230.03;5086525;28;20103;-73
2022/01/14 08:29:23;;;;;;;31.20;13.77;;;;;;;2.46;100.00;103221.59;5072035;28;20109;-74
2022/01/14 08:31:50;;;;;;;20.45;6.18;;;;;;;2.48;100.00;103224.03;5072103;28;20216;-73
2022/01/14 08:34:17;;;;;;;31.65;11.68;;;;;;;2.48;100.00;103226.75;5071569;28;20728;-73
2022/01/14 08:36:43;;;;;;;107.10;34.47;;;;;;;2.52;100.00;103223.19;5070428;28;20103;-75
2022/01/14 08:39:10;;;;;;;57.58;24.30;;;;;;;2.39;100.00;103201.13;5076639;28;20143;-75
2022/01/14 08:41:36;;;;;;;119.18;34.30;;;;;;;2.51;100.00;103218.84;5069694;28;20049;-75
2022/01/14 08:44:03;;;;;;;127.38;41.45;;;;;;;2.55;100.00;103239.03;5073463;28;20136;-76
2022/01/14 08:46:48;;;;;;;112.25;35.70;;;;;;;2.61;100.00;103234.34;5069912;28;20067;-74
2022/01/14 08:49:14;;;;;;;132.93;38.72;;;;;;;2.65;100.00;103246.34;5074216;28;20048;-72
2022/01/14 08:51:42;;;;;;;46.78;17.92;;;;;;;2.48;100.00;103235.78;5061910;28;20051;-75
2022/01/14 08:54:08;;;;;;;50.40;19.98;;;;;;;2.52;100.00;103244.22;5067279;28;20155;-74
2022/01/14 08:56:36;;;;;;;58.80;21.05;;;;;;;2.58;100.00;103254.03;5070253;28;20084;-74
2022/01/14 08:59:03;;;;;;;147.82;41.38;;;;;;;2.66;100.00;103259.72;5062572;28;20055;-74
2022/01/14 09:01:31;;;;;;;148.82;40.75;;;;;;;2.68;100.00;103254.81;5055797;28;20101;-75
2022/01/14 09:03:58;;;;;;;33.50;13.00;;;;;;;2.67;100.00;103255.09;5057136;28;20052;-76
2022/01/14 09:06:25;;;;;;;48.72;19.77;;;;;;;2.61;100.00;103250.75;5065669;28;20051;-73
2022/01/14 09:08:52;;;;;;;146.77;48.13;;;;;;;2.68;100.00;103252.06;5069877;28;20056;-75
2022/01/14 09:11:18;;;;;;;26.30;9.93;;;;;;;2.70;100.00;103254.50;5066804;28;20129;-76
2022/01/14 09:13:45;;;;;;;106.18;28.60;;;;;;;2.70;100.00;103260.78;5085182;28;20120;-74
2022/01/14 09:16:12;;;;;;;116.88;35.38;;;;;;;2.78;100.00;103266.75;5082200;28;20489;-74
2022/01/14 09:18:39;;;;;;;44.20;21.90;;;;;;;2.72;100.00;103271.44;5070233;28;20056;-74
2022/01/14 09:21:05;;;;;;;31.25;12.20;;;;;;;2.72;100.00;103272.28;5070077;28;20051;-73
2022/01/14 09:23:34;;;;;;;140.85;41.13;;;;;;;2.85;100.00;103279.03;5070528;28;20512;-73
2022/01/14 09:26:02;;;;;;;126.00;40.17;;;;;;;2.84;100.00;103288.34;5071345;28;20056;-75
2022/01/14 09:28:29;;;;;;;93.47;31.98;;;;;;;2.83;100.00;103289.41;5068972;28;20509;-72
2022/01/14 09:30:57;;;;;;;99.93;33.28;;;;;;;2.85;100.00;103278.19;5070549;28;20044;-74
2022/01/14 09:33:24;;;;;;;16.08;8.02;;;;;;;2.81;100.00;103288.91;5060368;28;20068;-74
2022/01/14 09:35:50;;;;;;;108.10;34.10;;;;;;;2.94;100.00;103280.06;5084631;28;20099;-73
2022/01/14 09:38:18;;;;;;;86.00;29.67;;;;;;;2.91;100.00;103288.84;5064836;28;20044;-75
2022/01/14 09:40:49;;;;;;;104.18;33.10;;;;;;;2.97;100.00;103297.81;5068030;28;20070;-74
2022/01/14 09:43:16;;;;;;;95.80;34.20;;;;;;;3.00;100.00;103298.03;5071582;28;20074;-76
2022/01/14 09:46:00;;;;;;;77.35;28.48;;;;;;;3.01;100.00;103294.22;5070534;28;20052;-73
2022/01/14 09:48:27;;;;;;;23.17;9.30;;;;;;;2.99;100.00;103292.84;5069671;28;20078;-74
2022/01/14 09:50:53;;;;;;;94.63;28.70;;;;;;;3.02;100.00;103289.56;5069267;28;20068;-73
2022/01/14 09:53:20;;;;;;;85.50;26.10;;;;;;;2.98;100.00;103277.56;5067746;28;20366;-75
2022/01/14 09:55:47;;;;;;;124.32;36.42;;;;;;;3.06;100.00;103282.41;5068381;28;20459;-75
2022/01/14 09:58:13;;;;;;;71.68;23.15;;;;;;;3.08;100.00;103283.78;5068076;28;20082;-74
2022/01/14 10:00:40;;;;;;;66.93;19.60;;;;;;;3.09;100.00;103287.31;5055034;28;20106;-73
2022/01/14 10:03:26;;;;;;;23.58;9.98;;;;;;;3.10;100.00;103297.19;5063742;28;20080;-73
2022/01/14 10:05:56;;;;;;;36.45;12.70;;;;;;;3.01;100.00;103271.53;5061665;28;20048;-75
2022/01/14 10:08:27;;;;;;;29.67;12.40;;;;;;;3.07;100.00;103273.13;5060741;28;20080;-73
2022/01/14 10:10:58;;;;;;;33.97;14.02;;;;;;;3.09;100.00;103269.00;5063146;28;20059;-74
2022/01/14 10:13:30;;;;;;;78.53;22.33;;;;;;;3.18;100.00;103271.94;5060954;28;20139;-74
2022/01/14 10:16:09;;;;;;;53.63;20.88;;;;;;;3.07;100.00;103262.97;5062024;28;20106;-74
2022/01/14 10:18:39;;;;;;;95.53;32.97;;;;;;;3.24;100.00;103270.78;5062231;28;20155;-73
2022/01/14 10:21:07;;;;;;;97.47;32.45;;;;;;;3.22;100.00;103278.47;5060911;28;20044;-76
2022/01/14 10:23:43;;;;;;;34.47;15.65;;;;;;;3.20;100.00;103275.22;5061317;28;20053;-75
2022/01/14 10:26:11;;;;;;;91.95;32.92;;;;;;;3.27;100.00;103276.50;5060531;28;20052;-73
2022/01/14 10:28:38;;;;;;;127.63;37.83;;;;;;;3.28;100.00;103278.16;5077733;28;20052;-75
2022/01/14 10:31:06;;;;;;;31.00;10.15;;;;;;;3.23;100.00;103275.44;5059943;28;20055;-74
2022/01/14 10:33:32;;;;;;;87.28;27.65;;;;;;;3.29;100.00;103278.94;5060182;28;20140;-75
2022/01/14 10:35:59;;;;;;;79.10;24.88;;;;;;;3.31;100.00;103280.28;5061623;28;20143;-74
2022/01/14 10:38:36;;;;;;;61.03;18.58;;;;;;;3.30;100.00;103277.88;5061329;28;20489;-76
2022/01/14 10:41:07;;;;;;;25.33;9.20;;;;;;;3.30;100.00;103273.19;5064626;28;20046;-74
2022/01/14 10:43:35;;;;;;;120.72;35.47;;;;;;;3.33;100.00;103267.13;5066732;28;20508;-74
2022/01/14 10:46:10;;;;;;;52.90;18.27;;;;;;;3.26;100.00;103255.72;5065660;28;20673;-74
2022/01/14 10:48:40;;;;;;;67.97;20.75;;;;;;;3.30;100.00;103264.97;5063926;28;20416;-75
2022/01/14 10:51:10;;;;;;;114.35;33.75;;;;;;;3.34;100.00;103248.81;5064828;28;20065;-74
2022/01/14 10:53:39;;;;;;;120.95;33.90;;;;;;;3.40;100.00;103253.94;5071092;28;20079;-74
2022/01/14 10:56:27;;;;;;;96.28;30.30;;;;;;;3.39;100.00;103235.91;5066454;28;20052;-75
2022/01/14 10:58:59;;;;;;;138.65;41.13;;;;;;;3.41;100.00;103244.63;5064958;28;20635;-74
2022/01/14 11:01:27;;;;;;;72.45;21.27;;;;;;;3.42;100.00;103246.28;5066315;28;20044;-75
2022/01/14 11:04:01;;;;;;;73.22;27.45;;;;;;;3.45;100.00;103236.66;5068828;28;20056;-74
2022/01/14 11:06:39;;;;;;;79.35;21.63;;;;;;;3.46;100.00;103222.69;5070556;28;20088;-75
2022/01/14 11:09:18;;;;;;;78.32;23.67;;;;;;;3.44;100.00;103221.34;5085056;28;20048;-76
2022/01/14 11:11:48;;;;;;;122.85;34.30;;;;;;;3.52;100.00;103228.91;5069527;28;20076;-74
2022/01/14 11:14:16;;;;;;;67.32;20.08;;;;;;;3.48;100.00;103236.88;5067464;28;20753;-75
2022/01/14 11:16:43;;;;;;;139.25;36.58;;;;;;;3.59;100.00;103246.66;5065686;28;20048;-75
2022/01/14 11:19:13;;;;;;;105.82;30.70;;;;;;;3.59;100.00;103241.16;5062056;28;20052;-72
2022/01/14 11:24:30;;;;;;;40.45;13.77;;;;;;;3.50;100.00;103242.06;5068316;28;20129;-76
2022/01/14 11:27:05;;;;;;;32.00;8.43;;;;;;;3.51;100.00;103238.25;5069626;28;20063;-74
2022/01/14 11:29:37;;;;;;;119.70;35.83;;;;;;;3.57;100.00;103237.88;5080149;28;20091;-73
2022/01/14 11:32:05;;;;;;;129.95;34.72;;;;;;;3.60;100.00;103234.56;5066420;28;20553;-73
2022/01/14 11:34:37;;;;;;;133.88;35.55;;;;;;;3.66;100.00;103240.81;5070395;28;20512;-71
2022/01/14 11:37:07;;;;;;;158.40;39.10;;;;;;;3.72;100.00;103240.50;5067440;28;20049;-74
2022/01/14 11:39:36;;;;;;;40.78;14.40;;;;;;;3.62;100.00;103231.56;5069228;28;20102;-74
2022/01/14 11:42:08;;;;;;;79.75;26.33;;;;;;;3.71;100.00;103238.84;5067835;28;20134;-73
2022/01/14 11:47:24;;;;;;;120.55;32.67;;;;;;;3.78;100.00;103224.81;5068097;28;20052;-78
2022/01/14 11:49:56;;;;;;;120.53;31.15;;;;;;;3.76;100.00;103214.16;5064128;28;20056;-74